Time;durP1;ratioP1;P1;durP2;ratioP2;P2;SDS_P1;SDS_P2;PMS_P1;PMS_P2;Temp;Humidity;BMP_temperature;BMP_pressure;BME280_temperature;BME280_humidity;BME280_pressure;Samples;Min_cycle;Max_cycle;Signal;HPM_P1;HPM_P2
2023/06/26 00:00:26;;;;;;;14.93;13.00;;;;;;;19.38;77.01;99930.55;1802308;79;21374;-58
2023/06/26 00:03:19;;;;;;;14.73;12.63;;;;;;;19.39;77.22;99918.35;1802532;78;21843;-56
2023/06/26 00:06:07;;;;;;;13.83;12.35;;;;;;;19.42;77.28;99913.70;1802390;79;21368;-55
2023/06/26 00:09:03;;;;;;;14.83;12.65;;;;;;;19.42;77.32;99913.16;1793307;79;21366;-55
2023/06/26 00:12:12;;;;;;;14.45;12.58;;;;;;;19.39;77.29;99908.10;1802740;79;21344;-56
2023/06/26 00:15:18;;;;;;;14.98;13.25;;;;;;;19.36;77.28;99913.29;1794204;79;21359;-57
2023/06/26 00:18:24;;;;;;;23.47;13.25;;;;;;;19.33;77.41;99910.44;1802325;79;21336;-56
2023/06/26 00:21:30;;;;;;;14.53;12.85;;;;;;;19.33;77.49;99912.39;1802360;79;21451;-58
2023/06/26 00:24:36;;;;;;;15.08;13.18;;;;;;;19.33;77.56;99905.45;1802373;79;21848;-56
2023/06/26 00:27:42;;;;;;;16.17;13.40;;;;;;;19.33;77.67;99923.78;1802559;79;21702;-57
2023/06/26 00:30:49;;;;;;;15.85;12.82;;;;;;;19.33;77.76;99924.88;1793548;79;21379;-56
2023/06/26 00:33:57;;;;;;;22.95;13.15;;;;;;;19.34;77.90;99922.69;1802369;79;21347;-58
2023/06/26 00:37:03;;;;;;;15.83;12.73;;;;;;;19.36;78.01;99914.68;1802608;79;21339;-57
2023/06/26 00:40:11;;;;;;;14.90;12.53;;;;;;;19.36;77.99;99909.13;1802521;79;21387;-57
2023/06/26 00:43:17;;;;;;;16.12;13.30;;;;;;;19.36;78.06;99896.64;1802495;78;21335;-57
2023/06/26 00:46:24;;;;;;;14.90;12.90;;;;;;;19.36;78.18;99890.52;1802310;79;21379;-56
2023/06/26 00:49:30;;;;;;;17.77;13.20;;;;;;;19.37;78.25;99892.77;1803139;79;21344;-56
2023/06/26 00:52:37;;;;;;;16.12;13.28;;;;;;;19.38;78.39;99886.14;1802916;78;21232;-57
2023/06/26 00:55:42;;;;;;;20.35;13.45;;;;;;;19.40;78.44;99892.27;1802286;79;21833;-57
2023/06/26 00:58:49;;;;;;;18.12;13.75;;;;;;;19.44;78.48;99890.70;1802230;79;21386;-56
2023/06/26 01:01:55;;;;;;;16.50;13.22;;;;;;;19.48;78.56;99894.66;1802801;78;21852;-57
2023/06/26 01:05:06;;;;;;;18.37;13.22;;;;;;;19.51;78.67;99892.78;1802851;79;21328;-57
2023/06/26 01:08:09;;;;;;;14.78;12.70;;;;;;;19.54;78.76;99884.81;1802444;79;21364;-58
2023/06/26 01:11:16;;;;;;;15.25;13.35;;;;;;;19.58;78.82;99880.47;1792394;79;21332;-58
2023/06/26 01:14:22;;;;;;;16.60;13.50;;;;;;;19.61;78.88;99881.89;1803328;79;21363;-58
2023/06/26 01:17:34;;;;;;;15.53;13.38;;;;;;;19.66;78.94;99882.01;1801107;79;21421;-57
2023/06/26 01:20:45;;;;;;;15.95;13.80;;;;;;;19.69;79.02;99882.90;1802327;79;21210;-58
2023/06/26 01:24:14;;;;;;;18.23;13.18;;;;;;;19.72;79.13;99890.73;1802624;79;21367;-58
2023/06/26 01:27:22;;;;;;;19.42;13.30;;;;;;;19.72;79.17;99884.64;1802333;79;21336;-57
2023/06/26 01:30:27;;;;;;;14.20;12.80;;;;;;;19.73;79.17;99886.32;1802378;79;21348;-57
2023/06/26 01:33:34;;;;;;;17.23;12.45;;;;;;;19.72;79.08;99892.13;1802596;79;21860;-57
2023/06/26 01:36:42;;;;;;;14.50;13.00;;;;;;;19.71;79.11;99891.27;1802482;78;21829;-57
2023/06/26 01:39:50;;;;;;;14.75;13.25;;;;;;;19.74;79.22;99885.78;1802402;79;21331;-57
2023/06/26 01:42:57;;;;;;;15.72;13.25;;;;;;;19.75;79.32;99890.23;1802510;79;21347;-56
2023/06/26 01:46:06;;;;;;;14.68;12.88;;;;;;;19.77;79.33;99874.17;1802427;79;21362;-57
2023/06/26 01:49:33;;;;;;;15.08;13.48;;;;;;;19.78;79.36;99871.69;1802473;78;21405;-56
2023/06/26 01:52:49;;;;;;;19.37;13.05;;;;;;;19.79;79.43;99867.84;1802874;79;21339;-56
2023/06/26 01:56:05;;;;;;;17.00;13.65;;;;;;;19.82;79.54;99864.55;1802246;78;21332;-57
2023/06/26 01:59:10;;;;;;;16.82;12.68;;;;;;;19.82;79.57;99865.95;1802558;79;21390;-56
2023/06/26 02:02:16;;;;;;;15.08;13.03;;;;;;;19.83;79.63;99858.75;1802255;79;21328;-57
2023/06/26 02:05:24;;;;;;;17.67;13.03;;;;;;;19.84;79.72;99855.41;1802287;79;21343;-56
2023/06/26 02:08:31;;;;;;;16.65;12.53;;;;;;;19.88;79.88;99856.61;1802204;78;21355;-55
2023/06/26 02:11:39;;;;;;;18.48;14.18;;;;;;;19.91;80.03;99847.78;1802299;79;21849;-57
2023/06/26 02:14:45;;;;;;;23.27;14.35;;;;;;;19.92;80.09;99841.12;1802317;79;21339;-57
2023/06/26 02:17:53;;;;;;;16.95;13.20;;;;;;;19.97;80.21;99843.99;1802996;78;21362;-57
2023/06/26 02:20:59;;;;;;;21.15;13.10;;;;;;;19.95;80.15;99847.56;1803121;79;21308;-56
2023/06/26 02:24:06;;;;;;;19.10;13.25;;;;;;;19.93;80.05;99846.42;1802693;79;21355;-56
2023/06/26 02:27:12;;;;;;;15.08;11.88;;;;;;;19.90;79.97;99844.72;1802459;79;21319;-57
2023/06/26 02:30:18;;;;;;;17.80;12.23;;;;;;;19.87;80.00;99846.03;1802310;79;21948;-57
2023/06/26 02:33:24;;;;;;;17.42;11.48;;;;;;;19.88;80.19;99848.28;1802584;79;21414;-57
2023/06/26 02:36:30;;;;;;;15.40;11.57;;;;;;;19.88;80.29;99853.30;1802464;79;21351;-57
2023/06/26 02:39:38;;;;;;;14.00;11.20;;;;;;;19.88;80.40;99863.02;1802484;79;21323;-56
2023/06/26 02:42:44;;;;;;;18.02;10.58;;;;;;;19.87;80.49;99855.77;1802528;78;21933;-57
2023/06/26 02:45:51;;;;;;;13.48;9.28;;;;;;;19.87;80.50;99850.77;1802364;79;21347;-57
2023/06/26 02:48:57;;;;;;;11.10;8.80;;;;;;;19.85;80.44;99839.06;1802501;79;21311;-57
2023/06/26 02:52:04;;;;;;;11.15;8.50;;;;;;;19.84;80.45;99844.30;1802494;78;21872;-56
2023/06/26 02:55:10;;;;;;;9.95;8.25;;;;;;;19.82;80.35;99840.95;1802573;78;21339;-57
2023/06/26 02:58:18;;;;;;;10.18;8.33;;;;;;;19.81;80.48;99842.02;1802559;79;21311;-56
2023/06/26 03:01:24;;;;;;;12.03;7.33;;;;;;;19.80;80.46;99837.56;1802504;79;21323;-56
2023/06/26 03:04:31;;;;;;;9.88;7.42;;;;;;;19.79;80.42;99835.89;1802363;79;21856;-56
2023/06/26 03:07:39;;;;;;;10.08;7.25;;;;;;;19.79;80.52;99833.11;1802686;79;21389;-57
2023/06/26 03:10:47;;;;;;;12.50;7.92;;;;;;;19.83;80.73;99831.51;1802548;79;21347;-56
2023/06/26 03:13:54;;;;;;;9.03;6.92;;;;;;;19.83;80.71;99836.53;1802391;78;21343;-57
2023/06/26 03:17:03;;;;;;;10.25;6.60;;;;;;;19.83;80.59;99828.19;1802486;79;21344;-60
2023/06/26 03:20:10;;;;;;;12.60;6.53;;;;;;;19.86;80.68;99824.06;1801015;79;21178;-59
2023/06/26 03:23:20;;;;;;;10.32;6.05;;;;;;;19.86;80.68;99819.89;1802952;79;21359;-59
2023/06/26 03:26:27;;;;;;;6.55;5.50;;;;;;;19.87;80.66;99822.98;1802417;79;21328;-59
2023/06/26 03:29:35;;;;;;;9.48;5.35;;;;;;;19.85;80.55;99824.59;1802391;78;21358;-57
2023/06/26 03:32:41;;;;;;;7.83;6.15;;;;;;;19.82;80.51;99818.72;1802512;79;21351;-58
2023/06/26 03:35:47;;;;;;;10.05;5.70;;;;;;;19.81;80.55;99821.19;1802456;79;21339;-60
2023/06/26 03:38:56;;;;;;;9.65;5.40;;;;;;;19.82;80.73;99827.88;1802433;79;21382;-58
2023/06/26 03:42:01;;;;;;;10.95;5.95;;;;;;;19.84;80.85;99826.23;1802500;79;21339;-58
2023/06/26 03:45:07;;;;;;;9.15;5.05;;;;;;;19.84;80.84;99830.41;1802360;79;21343;-58
2023/06/26 03:48:14;;;;;;;6.95;5.47;;;;;;;19.85;80.85;99827.94;1802432;79;21541;-58
2023/06/26 03:51:22;;;;;;;7.37;4.95;;;;;;;19.85;80.81;99827.94;1802554;79;21742;-58
2023/06/26 03:54:28;;;;;;;7.05;4.50;;;;;;;19.83;80.60;99825.95;1802654;79;21426;-58
2023/06/26 03:57:35;;;;;;;16.05;5.37;;;;;;;19.80;80.60;99821.75;1802624;78;21375;-59
2023/06/26 04:00:40;;;;;;;7.97;5.35;;;;;;;19.78;80.46;99821.15;1802409;78;21336;-59
2023/06/26 04:03:46;;;;;;;8.25;5.87;;;;;;;19.73;80.43;99821.58;1802280;79;21316;-59
2023/06/26 04:06:52;;;;;;;6.78;5.55;;;;;;;19.69;80.46;99822.65;1803233;79;21323;-59
2023/06/26 04:10:00;;;;;;;10.08;5.47;;;;;;;19.68;80.51;99824.29;1802606;79;21352;-58
2023/06/26 04:13:06;;;;;;;7.55;5.60;;;;;;;19.67;80.56;99819.80;1802432;79;21374;-59
2023/06/26 04:16:12;;;;;;;8.98;6.05;;;;;;;19.67;80.56;99818.42;1802912;79;21371;-59
2023/06/26 04:19:18;;;;;;;7.80;5.67;;;;;;;19.68;80.66;99808.45;1802551;79;21865;-59
2023/06/26 04:22:23;;;;;;;8.40;5.95;;;;;;;19.69;80.67;99812.08;1799416;79;21359;-59
2023/06/26 04:25:32;;;;;;;8.15;6.00;;;;;;;19.68;80.65;99807.05;1802311;79;21352;-60
2023/06/26 04:28:42;;;;;;;9.13;6.65;;;;;;;19.69;80.66;99812.08;1803051;79;21346;-60
2023/06/26 04:31:49;;;;;;;11.95;7.42;;;;;;;19.69;80.65;99805.13;1802460;78;21221;-61
2023/06/26 04:34:55;;;;;;;9.38;6.90;;;;;;;19.70;80.69;99804.88;1802102;79;21466;-58
2023/06/26 04:38:02;;;;;;;9.05;7.28;;;;;;;19.69;80.65;99809.30;1802311;78;21383;-58
2023/06/26 04:41:08;;;;;;;10.15;6.83;;;;;;;19.69;80.66;99812.08;1802654;79;21391;-59
2023/06/26 04:44:14;;;;;;;9.40;6.65;;;;;;;19.70;80.72;99804.03;1802387;79;21339;-59
2023/06/26 04:47:21;;;;;;;9.45;6.83;;;;;;;19.70;80.71;99805.42;1786176;79;21682;-59
2023/06/26 04:50:29;;;;;;;10.72;7.58;;;;;;;19.74;80.86;99819.13;1796987;79;21398;-62
2023/06/26 04:53:35;;;;;;;10.30;7.80;;;;;;;19.77;81.04;99816.70;1799658;79;21394;-58
2023/06/26 04:56:41;;;;;;;8.73;7.72;;;;;;;19.79;81.20;99813.67;1802194;78;21332;-59
2023/06/26 04:59:48;;;;;;;9.60;7.62;;;;;;;19.79;81.20;99805.34;1796651;79;21802;-57
2023/06/26 05:03:00;;;;;;;8.70;7.28;;;;;;;19.77;81.18;99795.02;1789412;78;21736;-59
2023/06/26 05:06:04;;;;;;;10.23;7.80;;;;;;;19.80;81.16;99795.90;1795373;79;21351;-58
2023/06/26 05:09:10;;;;;;;14.75;8.10;;;;;;;19.84;81.19;99800.70;1729731;81;21581;-59
2023/06/26 05:12:15;;;;;;;10.35;7.97;;;;;;;19.92;81.21;99792.50;1729945;82;21885;-59
2023/06/26 05:15:21;;;;;;;10.28;8.33;;;;;;;19.97;81.13;99795.37;1726101;81;22221;-60
2023/06/26 05:18:27;;;;;;;9.70;8.53;;;;;;;20.00;81.04;99804.59;1718432;83;21836;-58
2023/06/26 05:21:35;;;;;;;11.03;8.13;;;;;;;20.03;81.16;99802.16;1770368;79;21848;-58
2023/06/26 05:24:40;;;;;;;9.38;8.18;;;;;;;20.09;81.16;99803.11;1769280;80;21209;-57
2023/06/26 05:27:47;;;;;;;9.48;7.67;;;;;;;20.11;81.11;99798.11;1769774;81;21169;-59
2023/06/26 05:30:53;;;;;;;14.50;8.88;;;;;;;20.10;80.75;99797.83;1767760;79;21209;-58
2023/06/26 05:33:59;;;;;;;11.57;8.38;;;;;;;20.09;80.68;99791.99;1781776;79;21359;-58
2023/06/26 05:37:06;;;;;;;22.20;9.45;;;;;;;20.14;80.84;99790.69;1780104;79;21336;-58
2023/06/26 05:40:13;;;;;;;11.93;9.65;;;;;;;20.20;80.91;99789.70;1769616;79;21252;-59
2023/06/26 05:43:20;;;;;;;11.43;9.75;;;;;;;20.33;81.15;99777.69;1771644;79;21593;-57
2023/06/26 05:46:28;;;;;;;15.93;9.73;;;;;;;20.57;81.27;99790.84;1768036;79;21199;-62
2023/06/26 05:49:35;;;;;;;13.75;9.83;;;;;;;20.82;81.23;99788.44;1734476;82;21301;-59
2023/06/26 05:52:43;;;;;;;15.03;10.95;;;;;;;21.03;81.01;99787.66;1770873;80;21202;-61
2023/06/26 05:55:50;;;;;;;14.05;12.50;;;;;;;21.30;80.91;99784.39;1783737;79;21209;-59
2023/06/26 05:58:58;;;;;;;16.77;12.23;;;;;;;21.54;80.59;99794.16;1796908;79;22154;-58
2023/06/26 06:02:05;;;;;;;15.10;11.83;;;;;;;21.67;80.31;99792.36;1776867;79;21323;-59
2023/06/26 06:05:11;;;;;;;16.07;11.83;;;;;;;21.72;79.99;99798.54;1770083;81;21204;-59
2023/06/26 06:08:17;;;;;;;14.75;11.73;;;;;;;21.73;79.81;99792.70;1779694;79;21335;-59
2023/06/26 06:11:23;;;;;;;17.37;12.33;;;;;;;21.69;79.67;99801.85;1784437;79;21223;-58
2023/06/26 06:14:30;;;;;;;15.08;13.43;;;;;;;21.64;79.76;99795.67;1796305;78;21327;-60
2023/06/26 06:17:35;;;;;;;16.20;14.53;;;;;;;21.63;79.94;99805.66;1801508;79;21335;-58
2023/06/26 06:20:43;;;;;;;31.48;23.87;;;;;;;21.58;79.89;99799.48;1800388;78;21512;-59
2023/06/26 06:23:50;;;;;;;17.82;15.90;;;;;;;21.52;79.79;99797.75;1790003;78;21319;-59
2023/06/26 06:26:57;;;;;;;16.52;14.83;;;;;;;21.48;79.85;99799.92;1786055;79;21251;-56
2023/06/26 06:30:04;;;;;;;16.85;14.40;;;;;;;21.49;80.13;99810.80;1793976;78;21343;-58
2023/06/26 06:33:12;;;;;;;17.35;14.43;;;;;;;21.50;80.20;99810.27;1796181;79;21872;-59
2023/06/26 06:36:18;;;;;;;16.67;14.20;;;;;;;21.51;80.27;99807.22;1799542;78;21386;-61
2023/06/26 06:39:24;;;;;;;15.15;12.65;;;;;;;21.55;80.35;99806.16;1781425;79;21409;-58
2023/06/26 06:42:31;;;;;;;15.20;13.68;;;;;;;21.55;80.36;99806.97;1784622;79;21841;-58
2023/06/26 06:45:37;;;;;;;14.15;12.65;;;;;;;21.55;80.31;99806.16;1781934;78;21303;-60
2023/06/26 06:48:46;;;;;;;15.35;13.75;;;;;;;21.55;80.21;99802.79;1794219;78;21366;-59
2023/06/26 06:51:55;;;;;;;18.62;14.68;;;;;;;21.61;80.32;99807.31;1772737;79;21547;-60
2023/06/26 06:55:06;;;;;;;17.82;15.88;;;;;;;21.70;80.33;99805.77;1786159;79;21355;-57
2023/06/26 06:58:13;;;;;;;21.40;16.90;;;;;;;21.76;80.27;99810.31;1776846;79;21189;-60
2023/06/26 07:01:19;;;;;;;18.25;16.45;;;;;;;21.78;80.29;99814.23;1787219;79;21832;-60
2023/06/26 07:04:27;;;;;;;19.55;17.57;;;;;;;21.82;80.36;99813.44;1798795;79;21378;-58
2023/06/26 07:07:37;;;;;;;19.80;17.77;;;;;;;21.91;80.58;99813.82;1781911;79;21761;-57
2023/06/26 07:10:43;;;;;;;21.25;18.98;;;;;;;22.02;80.54;99812.24;1775509;79;21715;-54
2023/06/26 07:13:49;;;;;;;20.27;17.73;;;;;;;22.17;80.66;99809.61;1801588;79;21418;-56
2023/06/26 07:16:54;;;;;;;19.25;17.32;;;;;;;22.35;80.62;99805.59;1801182;79;21351;-53
2023/06/26 07:19:59;;;;;;;18.37;16.42;;;;;;;22.42;80.36;99807.58;1792350;79;21429;-57
2023/06/26 07:23:08;;;;;;;17.95;16.25;;;;;;;22.45;80.16;99811.80;1777812;79;21398;-59
2023/06/26 07:26:16;;;;;;;17.10;15.38;;;;;;;22.46;79.96;99803.16;1801942;79;21921;-58
2023/06/26 07:29:25;;;;;;;17.02;15.25;;;;;;;22.52;80.03;99798.48;1802242;79;21335;-58
2023/06/26 07:32:29;;;;;;;14.93;13.53;;;;;;;22.61;80.06;99792.14;1790136;79;21358;-60
2023/06/26 07:35:35;;;;;;;18.95;15.10;;;;;;;22.76;80.18;99794.20;1780393;79;21259;-59
2023/06/26 07:38:42;;;;;;;14.40;13.00;;;;;;;22.93;80.14;99789.30;1785051;79;21327;-59
2023/06/26 07:41:48;;;;;;;15.95;14.13;;;;;;;23.05;79.86;99785.73;1770176;79;21184;-59
2023/06/26 07:44:54;;;;;;;12.43;11.25;;;;;;;23.19;79.80;99783.57;1770223;80;21212;-58
2023/06/26 07:48:01;;;;;;;12.55;11.22;;;;;;;23.33;79.64;99792.30;1770876;79;21186;-58
2023/06/26 07:51:08;;;;;;;12.93;11.03;;;;;;;23.35;79.36;99781.70;1796727;79;21403;-57
2023/06/26 07:54:13;;;;;;;11.08;9.98;;;;;;;23.42;79.36;99785.10;1799072;78;21990;-59
2023/06/26 07:57:21;;;;;;;10.78;8.80;;;;;;;23.39;79.11;99775.30;1795069;79;21375;-58
2023/06/26 08:00:26;;;;;;;11.15;9.00;;;;;;;23.44;79.14;99770.28;1779798;79;21374;-60
2023/06/26 08:03:33;;;;;;;10.35;9.05;;;;;;;23.61;79.23;99768.94;1778836;79;21397;-59
2023/06/26 08:06:40;;;;;;;10.40;8.88;;;;;;;23.68;78.78;99777.61;1772861;79;21221;-58
2023/06/26 08:09:47;;;;;;;8.88;7.97;;;;;;;23.62;78.56;99775.38;1795518;79;21940;-60
2023/06/26 08:12:56;;;;;;;10.38;8.85;;;;;;;23.47;78.24;99773.91;1775181;79;21289;-59
2023/06/26 08:16:03;;;;;;;9.13;8.20;;;;;;;23.40;78.23;99774.75;1770078;80;21212;-60
2023/06/26 08:19:10;;;;;;;9.75;8.75;;;;;;;23.39;78.19;99775.30;1777982;79;21224;-60
2023/06/26 08:22:16;;;;;;;10.15;8.53;;;;;;;23.38;78.09;99768.58;1786895;79;21347;-59
2023/06/26 08:25:26;;;;;;;8.95;7.20;;;;;;;23.47;78.36;99768.33;1791342;78;21915;-59
2023/06/26 08:28:32;;;;;;;11.73;10.50;;;;;;;23.61;78.50;99755.50;1783464;79;21430;-58
2023/06/26 08:31:37;;;;;;;10.38;8.35;;;;;;;23.85;78.57;99755.28;1786400;79;21406;-59
2023/06/26 08:34:44;;;;;;;8.38;7.50;;;;;;;24.05;78.10;99753.11;1801813;79;21401;-61
2023/06/26 08:37:49;;;;;;;8.50;7.47;;;;;;;24.09;77.75;99747.22;1788378;79;21370;-59
2023/06/26 08:40:55;;;;;;;9.23;7.40;;;;;;;24.18;77.71;99749.19;1783791;79;21418;-58
2023/06/26 08:44:02;;;;;;;9.75;8.30;;;;;;;24.19;77.41;99741.09;1790359;79;22094;-59
2023/06/26 08:47:09;;;;;;;11.08;7.78;;;;;;;24.11;77.12;99746.39;1774981;79;21698;-59
2023/06/26 08:50:17;;;;;;;9.08;7.58;;;;;;;24.01;77.04;99757.56;1798399;79;22164;-57
2023/06/26 08:53:54;;;;;;;8.03;7.20;;;;;;;23.90;76.93;99745.51;1802024;79;21442;-55
2023/06/26 08:57:00;;;;;;;9.15;6.85;;;;;;;23.82;76.89;99743.84;1802740;79;21398;-57
2023/06/26 09:00:08;;;;;;;10.45;7.33;;;;;;;23.80;76.89;99742.69;1792818;79;21703;-56
2023/06/26 09:03:14;;;;;;;9.53;7.65;;;;;;;23.80;76.87;99748.28;1805162;78;21272;-55
2023/06/26 09:06:20;;;;;;;8.65;6.83;;;;;;;23.83;76.92;99749.16;1771395;80;21979;-54
2023/06/26 09:09:25;;;;;;;8.55;7.15;;;;;;;23.89;76.89;99754.17;1762529;80;21267;-55
2023/06/26 09:12:33;;;;;;;8.90;7.17;;;;;;;23.84;76.67;99756.95;1772860;79;21230;-54
2023/06/26 09:15:51;;;;;;;8.70;7.80;;;;;;;23.72;76.37;99750.25;1769943;81;21189;-56
2023/06/26 09:18:58;;;;;;;8.00;7.12;;;;;;;23.63;76.39;99760.27;1770809;80;22156;-54
2023/06/26 09:22:06;;;;;;;8.43;7.33;;;;;;;23.52;76.27;99762.21;1773274;79;22028;-54
2023/06/26 09:25:14;;;;;;;12.98;7.67;;;;;;;23.39;76.16;99766.91;1802996;79;21864;-54
2023/06/26 09:28:19;;;;;;;10.00;8.05;;;;;;;23.28;76.06;99775.52;1794860;79;21845;-55
2023/06/26 09:31:25;;;;;;;9.23;8.20;;;;;;;23.08;75.95;99780.98;1802687;79;21829;-54
2023/06/26 09:34:41;;;;;;;10.15;9.08;;;;;;;22.80;75.85;99773.84;1802596;79;21430;-56
2023/06/26 09:37:47;;;;;;;10.32;9.20;;;;;;;22.64;75.92;99771.25;1803845;79;21387;-55
2023/06/26 09:40:54;;;;;;;14.75;8.65;;;;;;;22.42;75.82;99764.92;1772516;80;21370;-56
2023/06/26 09:44:02;;;;;;;10.00;8.88;;;;;;;22.32;75.98;99757.31;1775596;79;21834;-55
2023/06/26 09:47:09;;;;;;;11.78;9.80;;;;;;;22.29;76.04;99758.39;1800699;79;21348;-55
2023/06/26 09:50:32;;;;;;;9.60;8.60;;;;;;;22.34;76.32;99750.92;1795099;79;22205;-55
2023/06/26 09:53:42;;;;;;;9.95;8.05;;;;;;;22.60;76.76;99744.42;1781934;79;21710;-54
2023/06/26 09:56:49;;;;;;;9.40;8.20;;;;;;;22.90;76.69;99746.55;1763884;80;21244;-55
2023/06/26 09:59:56;;;;;;;8.30;7.33;;;;;;;23.03;76.50;99732.09;1784242;79;21358;-56
2023/06/26 10:03:08;;;;;;;11.83;8.10;;;;;;;23.15;76.45;99739.12;1782982;79;21343;-55
2023/06/26 10:06:13;;;;;;;8.08;7.10;;;;;;;23.32;76.57;99736.16;1782668;79;21441;-56
2023/06/26 10:09:18;;;;;;;9.78;8.40;;;;;;;23.48;76.50;99736.50;1765520;79;21248;-55
2023/06/26 10:12:35;;;;;;;8.33;6.80;;;;;;;23.72;76.73;99733.48;1773920;79;21394;-57
2023/06/26 10:15:40;;;;;;;10.00;7.75;;;;;;;23.95;76.45;99734.33;1734239;82;21196;-53
2023/06/26 10:18:48;;;;;;;8.00;7.20;;;;;;;24.14;76.21;99720.66;1771914;80;21350;-54
2023/06/26 10:21:55;;;;;;;8.13;7.28;;;;;;;24.31;76.13;99711.44;1697484;81;21184;-55
2023/06/26 10:25:02;;;;;;;7.20;6.40;;;;;;;24.41;75.75;99708.05;1773108;79;21375;-56
2023/06/26 10:28:09;;;;;;;6.47;5.70;;;;;;;24.36;75.32;99705.26;1768556;79;21900;-56
2023/06/26 10:31:15;;;;;;;12.82;6.40;;;;;;;24.26;75.00;99705.27;1781997;79;21375;-56
2023/06/26 10:34:24;;;;;;;8.00;6.60;;;;;;;24.27;75.01;99699.97;1767376;79;21433;-58
2023/06/26 10:37:53;;;;;;;7.95;5.92;;;;;;;24.42;75.20;99699.93;1764370;81;21176;-55
2023/06/26 10:41:03;;;;;;;6.60;5.53;;;;;;;24.64;75.16;99697.63;1778702;79;21399;-54
2023/06/26 10:44:18;;;;;;;6.75;5.95;;;;;;;24.68;74.53;99704.94;1771986;79;21386;-55
2023/06/26 10:47:39;;;;;;;7.83;6.92;;;;;;;24.67;74.31;99706.89;1781662;79;22010;-56
2023/06/26 10:50:46;;;;;;;7.78;6.35;;;;;;;24.71;73.92;99705.22;1771851;80;21417;-55
2023/06/26 10:53:52;;;;;;;7.55;6.75;;;;;;;24.67;73.71;99700.48;1775415;79;21342;-55
2023/06/26 10:57:00;;;;;;;8.18;6.17;;;;;;;24.65;73.63;99695.69;1785902;79;21323;-55
2023/06/26 11:00:19;;;;;;;8.13;6.92;;;;;;;24.57;73.30;99708.31;1780530;80;21738;-56
2023/06/26 11:03:32;;;;;;;9.58;7.50;;;;;;;24.42;73.11;99715.31;1773003;79;21174;-53
2023/06/26 11:06:38;;;;;;;10.85;7.67;;;;;;;24.12;72.85;99724.31;1793643;79;21184;-55
2023/06/26 11:09:45;;;;;;;12.78;8.90;;;;;;;23.80;73.01;99716.71;1774073;79;21753;-55
2023/06/26 11:12:52;;;;;;;10.00;8.23;;;;;;;23.63;73.33;99725.34;1803606;79;22160;-55
2023/06/26 11:15:58;;;;;;;9.73;7.95;;;;;;;23.45;73.27;99723.08;1801468;79;21351;-55
2023/06/26 11:19:08;;;;;;;9.93;6.92;;;;;;;23.38;73.58;99717.75;1775425;79;21402;-55
2023/06/26 11:22:14;;;;;;;9.93;7.60;;;;;;;23.34;73.38;99714.39;1773448;79;21188;-56
2023/06/26 11:25:19;;;;;;;9.15;7.40;;;;;;;23.33;73.41;99715.48;1780266;79;21895;-56
2023/06/26 11:28:28;;;;;;;7.95;7.15;;;;;;;23.34;73.32;99721.38;1780377;79;21568;-56
2023/06/26 11:31:40;;;;;;;9.23;8.15;;;;;;;23.26;73.21;99719.11;1781243;79;21362;-56
2023/06/26 11:34:50;;;;;;;8.60;6.83;;;;;;;23.20;73.20;99714.56;1778638;79;21382;-55
2023/06/26 11:38:00;;;;;;;8.75;7.08;;;;;;;23.17;73.21;99723.49;1785103;79;21919;-55
2023/06/26 11:41:08;;;;;;;8.33;6.78;;;;;;;23.15;73.27;99721.55;1787565;78;21347;-54
2023/06/26 11:44:20;;;;;;;8.93;7.10;;;;;;;23.16;73.21;99727.41;1783248;79;21348;-55
2023/06/26 11:47:28;;;;;;;8.38;6.42;;;;;;;23.30;73.31;99718.83;1793956;79;21355;-54
2023/06/26 11:50:34;;;;;;;8.40;6.30;;;;;;;23.49;73.45;99711.62;1768903;80;21251;-55
2023/06/26 11:53:48;;;;;;;7.92;6.25;;;;;;;23.68;73.40;99714.72;1795103;79;21719;-55
2023/06/26 11:57:02;;;;;;;8.28;6.05;;;;;;;23.84;73.34;99713.08;1799677;79;21177;-55
2023/06/26 12:00:20;;;;;;;7.33;6.55;;;;;;;23.95;73.23;99711.96;1771123;79;21220;-56
2023/06/26 12:03:27;;;;;;;7.60;6.67;;;;;;;23.98;72.97;99704.44;1768441;80;21566;-54
2023/06/26 12:06:36;;;;;;;8.08;6.35;;;;;;;24.18;73.12;99707.23;1768895;79;21765;-55
2023/06/26 12:09:41;;;;;;;7.03;6.33;;;;;;;24.44;73.03;99707.48;1770206;79;21213;-55
2023/06/26 12:12:50;;;;;;;6.05;5.20;;;;;;;24.51;72.71;99701.05;1775347;79;21178;-57
2023/06/26 12:15:55;;;;;;;6.72;4.35;;;;;;;24.67;72.75;99704.67;1787539;79;21203;-55
2023/06/26 12:19:09;;;;;;;6.28;4.90;;;;;;;24.76;72.62;99702.41;1780540;79;21710;-56
2023/06/26 12:22:15;;;;;;;6.53;4.67;;;;;;;24.85;72.65;99697.05;1778999;79;21815;-55
2023/06/26 12:25:20;;;;;;;7.25;5.40;;;;;;;24.85;72.49;99704.05;1782562;79;21212;-57
2023/06/26 12:28:27;;;;;;;5.15;4.65;;;;;;;24.82;72.35;99700.41;1785245;79;21738;-55
2023/06/26 12:31:32;;;;;;;7.87;4.92;;;;;;;24.91;72.45;99697.33;1791588;79;21232;-57
2023/06/26 12:34:43;;;;;;;8.20;5.00;;;;;;;25.04;72.22;99691.94;1800828;78;21419;-54
2023/06/26 12:37:50;;;;;;;5.87;5.10;;;;;;;24.97;71.83;99694.19;1790688;79;21320;-55
2023/06/26 12:40:56;;;;;;;5.83;4.53;;;;;;;24.91;71.80;99700.12;1779686;79;21181;-55
2023/06/26 12:44:05;;;;;;;6.12;3.95;;;;;;;24.91;71.82;99696.74;1764223;79;21200;-55
2023/06/26 12:47:15;;;;;;;5.03;4.28;;;;;;;24.92;71.68;99687.23;1763780;79;21764;-54
2023/06/26 12:50:20;;;;;;;4.17;3.67;;;;;;;24.89;71.57;99687.78;1792009;78;21391;-54
2023/06/26 12:53:26;;;;;;;5.25;4.67;;;;;;;24.91;71.55;99687.52;1780057;79;21173;-55
2023/06/26 12:56:32;;;;;;;5.87;4.90;;;;;;;24.96;71.41;99684.67;1788690;79;21361;-55
2023/06/26 12:59:39;;;;;;;5.72;5.10;;;;;;;24.96;71.19;99689.72;1752635;81;21196;-54
2023/06/26 13:02:45;;;;;;;5.58;4.50;;;;;;;24.89;71.04;99681.36;1719770;82;21182;-55
2023/06/26 13:05:52;;;;;;;5.08;3.80;;;;;;;24.86;71.08;99684.73;1787654;79;21343;-54
2023/06/26 13:08:58;;;;;;;4.90;3.62;;;;;;;24.87;71.13;99678.85;1788945;79;21220;-56
2023/06/26 13:12:05;;;;;;;6.60;3.87;;;;;;;24.92;71.06;99690.04;1770766;79;21204;-56
2023/06/26 13:15:12;;;;;;;4.37;3.98;;;;;;;25.00;70.85;99695.59;1790577;79;21620;-55
2023/06/26 13:18:19;;;;;;;5.15;3.67;;;;;;;25.02;70.60;99691.95;1780148;79;21193;-54
2023/06/26 13:21:24;;;;;;;5.78;4.35;;;;;;;24.98;70.38;99690.28;1769865;79;21200;-55
2023/06/26 13:24:30;;;;;;;5.87;4.53;;;;;;;24.90;70.28;99688.08;1761323;80;21200;-55
2023/06/26 13:27:35;;;;;;;5.47;4.90;;;;;;;24.79;70.11;99693.44;1786024;79;21292;-56
2023/06/26 13:30:40;;;;;;;5.17;4.53;;;;;;;24.68;70.06;99693.75;1773740;79;21329;-55
2023/06/26 13:33:52;;;;;;;5.65;4.45;;;;;;;24.58;69.96;99694.58;1742798;81;21280;-54
2023/06/26 13:36:55;;;;;;;7.20;4.92;;;;;;;24.48;69.95;99687.59;1738273;81;21193;-55
2023/06/26 13:40:01;;;;;;;5.65;5.00;;;;;;;24.39;69.91;99684.25;1733838;82;21220;-56
2023/06/26 13:43:08;;;;;;;4.55;3.77;;;;;;;24.38;70.15;99689.03;1737832;81;21366;-56
2023/06/26 13:46:16;;;;;;;5.55;4.25;;;;;;;24.41;70.23;99688.47;1744861;81;21577;-55
2023/06/26 13:49:22;;;;;;;4.45;3.30;;;;;;;24.48;70.21;99684.80;1734546;81;21204;-56
2023/06/26 13:52:26;;;;;;;7.75;3.50;;;;;;;24.53;70.02;99687.59;1745287;81;21706;-56
2023/06/26 13:55:32;;;;;;;4.17;3.67;;;;;;;24.60;69.89;99678.90;1762402;81;21196;-56
2023/06/26 13:58:41;;;;;;;4.20;3.60;;;;;;;24.57;69.61;99675.27;1739966;81;21758;-55
2023/06/26 14:01:49;;;;;;;4.75;3.67;;;;;;;24.52;69.47;99676.13;1718012;81;21856;-56
2023/06/26 14:04:56;;;;;;;3.85;3.17;;;;;;;24.51;69.48;99684.26;1765461;81;21294;-57
2023/06/26 14:08:02;;;;;;;4.67;3.75;;;;;;;24.44;69.31;99671.11;1764370;81;21184;-58
2023/06/26 14:11:07;;;;;;;5.92;3.90;;;;;;;24.38;69.28;99676.45;1737738;81;21784;-57
2023/06/26 14:14:13;;;;;;;8.03;4.42;;;;;;;24.30;69.23;99683.16;1753780;81;21541;-53
2023/06/26 14:17:19;;;;;;;7.78;5.28;;;;;;;24.16;69.13;99693.25;1715839;82;21192;-56
2023/06/26 14:20:25;;;;;;;7.62;4.33;;;;;;;23.70;69.23;99700.77;1718409;82;21275;-55
2023/06/26 14:23:29;;;;;;;6.80;4.80;;;;;;;23.26;69.51;99688.39;1733833;82;21196;-56
2023/06/26 14:26:36;;;;;;;7.55;4.72;;;;;;;22.96;69.82;99685.45;1734075;82;21184;-55
2023/06/26 14:29:41;;;;;;;8.93;4.50;;;;;;;22.81;70.16;99680.64;1733823;82;21768;-56
2023/06/26 14:32:48;;;;;;;5.28;4.67;;;;;;;22.74;70.23;99677.25;1756321;78;21282;-55